PWSweather.com
Personal Weather Stations
Station Observations

YeovilGB

Lat: 50.949, Lon: -2.627

Elevation: 70

Station Type: Vantage Pro

http://www.yeovil-weather.me.uk/

High Low Average
Temperature 62.2°F16.8°C 48.7°F9.3°C 56.9°F13.8°C
Dew Point 54.7°F12.6°C 43.5°F6.4°C 50.3°F10.2°C
Winds 8.1 mph 13.0 kmh Calm Calm 3.0 mph SSE4.8 kmh SSE
Wind Gusts 13.8 mph22.2 kmh -- 6.0 mph9.7 kmh
Humidity 90% 70% 79%
Pressure 30.36 in1028.1 mb 30.19 in1022.4 mb -
Precipitation 0.00 in0.0 mm - -
Hour Temp Dew Point Humidity Winds Wind Gusts Pressure Precip Precip Rate Daily Precip Total
12:00 AM 56.0°F13.3°C 51.9°F11.1°C 86% 1.2 mph NW1.9 kmh NW 2.3 mph3.7 kmh 30.19 in1022.4 mb - 0.00 in0.0 mm 0.00 in0.0 mm
12:10 AM 56.1°F13.4°C 52.0°F11.1°C 86% Calm Calm 3.5 mph5.6 kmh 30.19 in1022.4 mb - 0.00 in0.0 mm 0.00 in0.0 mm
12:20 AM 56.1°F13.4°C 51.7°F10.9°C 85% Calm Calm 2.3 mph3.7 kmh 30.19 in1022.4 mb - 0.00 in0.0 mm 0.00 in0.0 mm
12:30 AM 56.0°F13.3°C 51.6°F10.9°C 85% Calm Calm -- 30.19 in1022.4 mb - 0.00 in0.0 mm 0.00 in0.0 mm
12:40 AM 56.0°F13.3°C 51.2°F10.7°C 84% Calm Calm 3.5 mph5.6 kmh 30.19 in1022.4 mb - 0.00 in0.0 mm 0.00 in0.0 mm
12:50 AM 56.0°F13.3°C 51.2°F10.7°C 84% Calm Calm 3.5 mph5.6 kmh 30.19 in1022.4 mb - 0.00 in0.0 mm 0.00 in0.0 mm
01:00 AM 56.1°F13.4°C 51.0°F10.6°C 83% Calm Calm -- 30.20 in1022.7 mb - 0.00 in0.0 mm 0.00 in0.0 mm
01:10 AM 56.2°F13.4°C 50.8°F10.4°C 82% 1.2 mph NNW1.9 kmh NNW 1.2 mph1.9 kmh 30.20 in1022.7 mb - 0.00 in0.0 mm 0.00 in0.0 mm
01:20 AM 56.1°F13.4°C 50.7°F10.4°C 82% Calm Calm 1.2 mph1.9 kmh 30.20 in1022.7 mb - 0.00 in0.0 mm 0.00 in0.0 mm
01:30 AM 56.1°F13.4°C 50.3°F10.2°C 81% Calm Calm 1.2 mph1.9 kmh 30.20 in1022.7 mb - 0.00 in0.0 mm 0.00 in0.0 mm
01:40 AM 56.1°F13.4°C 50.3°F10.2°C 81% Calm Calm -- 30.20 in1022.7 mb - 0.00 in0.0 mm 0.00 in0.0 mm
01:50 AM 56.0°F13.3°C 50.6°F10.3°C 82% Calm Calm 3.5 mph5.6 kmh 30.20 in1022.7 mb - 0.00 in0.0 mm 0.00 in0.0 mm
02:00 AM 55.9°F13.3°C 50.5°F10.3°C 82% Calm Calm -- 30.20 in1022.7 mb - 0.00 in0.0 mm 0.00 in0.0 mm
02:10 AM 55.7°F13.2°C 50.6°F10.3°C 83% Calm Calm 1.2 mph1.9 kmh 30.20 in1022.7 mb - 0.00 in0.0 mm 0.00 in0.0 mm
02:20 AM 55.6°F13.1°C 50.8°F10.4°C 84% 2.3 mph NNW3.7 kmh NNW 4.6 mph7.4 kmh 30.20 in1022.7 mb - 0.00 in0.0 mm 0.00 in0.0 mm
02:30 AM 55.5°F13.1°C 50.7°F10.4°C 84% 1.2 mph NNW1.9 kmh NNW 2.3 mph3.7 kmh 30.20 in1022.7 mb - 0.00 in0.0 mm 0.00 in0.0 mm
02:40 AM 55.4°F13.0°C 50.6°F10.3°C 84% 2.3 mph NW3.7 kmh NW 4.6 mph7.4 kmh 30.20 in1022.7 mb - 0.00 in0.0 mm 0.00 in0.0 mm
02:50 AM 55.3°F12.9°C 50.5°F10.3°C 84% 1.2 mph NW1.9 kmh NW 4.6 mph7.4 kmh 30.20 in1022.7 mb - 0.00 in0.0 mm 0.00 in0.0 mm
03:00 AM 55.2°F12.9°C 50.8°F10.4°C 85% 2.3 mph NW3.7 kmh NW 4.6 mph7.4 kmh 30.20 in1022.7 mb - 0.00 in0.0 mm 0.00 in0.0 mm
03:10 AM 55.1°F12.8°C 50.7°F10.4°C 85% Calm Calm 2.3 mph3.7 kmh 30.20 in1022.7 mb - 0.00 in0.0 mm 0.00 in0.0 mm
03:20 AM 55.0°F12.8°C 50.6°F10.3°C 85% 1.2 mph NW1.9 kmh NW 3.5 mph5.6 kmh 30.20 in1022.7 mb - 0.00 in0.0 mm 0.00 in0.0 mm
03:30 AM 54.8°F12.7°C 50.7°F10.4°C 86% 2.3 mph NW3.7 kmh NW 5.8 mph9.3 kmh 30.20 in1022.7 mb - 0.00 in0.0 mm 0.00 in0.0 mm
03:40 AM 54.7°F12.6°C 50.6°F10.3°C 86% 2.3 mph NNW3.7 kmh NNW 5.8 mph9.3 kmh 30.20 in1022.7 mb - 0.00 in0.0 mm 0.00 in0.0 mm
03:50 AM 54.6°F12.6°C 50.8°F10.4°C 87% 3.5 mph NW5.6 kmh NW 5.8 mph9.3 kmh 30.20 in1022.7 mb - 0.00 in0.0 mm 0.00 in0.0 mm
04:00 AM 54.6°F12.6°C 50.8°F10.4°C 87% 1.2 mph NNW1.9 kmh NNW 4.6 mph7.4 kmh 30.20 in1022.7 mb - 0.00 in0.0 mm 0.00 in0.0 mm
04:10 AM 54.5°F12.5°C 50.7°F10.4°C 87% Calm Calm 1.2 mph1.9 kmh 30.21 in1023.0 mb - 0.00 in0.0 mm 0.00 in0.0 mm
04:20 AM 54.3°F12.4°C 50.5°F10.3°C 87% Calm Calm -- 30.21 in1023.0 mb - 0.00 in0.0 mm 0.00 in0.0 mm
04:30 AM 54.1°F12.3°C 50.6°F10.3°C 88% 3.5 mph NNW5.6 kmh NNW 4.6 mph7.4 kmh 30.21 in1023.0 mb - 0.00 in0.0 mm 0.00 in0.0 mm
04:40 AM 54.0°F12.2°C 50.5°F10.3°C 88% Calm Calm 3.5 mph5.6 kmh 30.21 in1023.0 mb - 0.00 in0.0 mm 0.00 in0.0 mm
04:50 AM 53.8°F12.1°C 50.7°F10.4°C 89% 1.2 mph NW1.9 kmh NW 4.6 mph7.4 kmh 30.21 in1023.0 mb - 0.00 in0.0 mm 0.00 in0.0 mm
05:00 AM 53.7°F12.1°C 50.6°F10.3°C 89% 3.5 mph NW5.6 kmh NW 4.6 mph7.4 kmh 30.22 in1023.4 mb - 0.00 in0.0 mm 0.00 in0.0 mm
05:10 AM 53.7°F12.1°C 50.6°F10.3°C 89% 1.2 mph NW1.9 kmh NW 5.8 mph9.3 kmh 30.22 in1023.4 mb - 0.00 in0.0 mm 0.00 in0.0 mm
05:20 AM 53.8°F12.1°C 50.9°F10.5°C 90% 3.5 mph NW5.6 kmh NW 5.8 mph9.3 kmh 30.22 in1023.4 mb - 0.00 in0.0 mm 0.00 in0.0 mm
05:30 AM 53.9°F12.2°C 51.0°F10.6°C 90% 1.2 mph NNW1.9 kmh NNW 4.6 mph7.4 kmh 30.22 in1023.4 mb - 0.00 in0.0 mm 0.00 in0.0 mm
05:40 AM 54.0°F12.2°C 51.1°F10.6°C 90% 1.2 mph NNW1.9 kmh NNW 3.5 mph5.6 kmh 30.23 in1023.7 mb - 0.00 in0.0 mm 0.00 in0.0 mm
05:50 AM 54.2°F12.3°C 51.3°F10.7°C 90% 1.2 mph NW1.9 kmh NW 4.6 mph7.4 kmh 30.23 in1023.7 mb - 0.00 in0.0 mm 0.00 in0.0 mm
06:00 AM 54.4°F12.4°C 51.5°F10.8°C 90% 3.5 mph NW5.6 kmh NW 5.8 mph9.3 kmh 30.23 in1023.7 mb - 0.00 in0.0 mm 0.00 in0.0 mm
06:10 AM 54.5°F12.5°C 51.3°F10.7°C 89% 2.3 mph NNW3.7 kmh NNW 3.5 mph5.6 kmh 30.23 in1023.7 mb - 0.00 in0.0 mm 0.00 in0.0 mm
06:20 AM 54.8°F12.7°C 51.6°F10.9°C 89% Calm Calm -- 30.24 in1024.0 mb - 0.00 in0.0 mm 0.00 in0.0 mm
06:30 AM 55.0°F12.8°C 51.5°F10.8°C 88% Calm Calm 2.3 mph3.7 kmh 30.24 in1024.0 mb - 0.00 in0.0 mm 0.00 in0.0 mm
06:40 AM 55.2°F12.9°C 51.8°F11.0°C 88% Calm Calm 3.5 mph5.6 kmh 30.24 in1024.0 mb - 0.00 in0.0 mm 0.00 in0.0 mm
06:50 AM 55.6°F13.1°C 51.8°F11.0°C 87% Calm Calm -- 30.24 in1024.0 mb - 0.00 in0.0 mm 0.00 in0.0 mm
07:00 AM 56.0°F13.3°C 52.2°F11.2°C 87% Calm Calm -- 30.24 in1024.0 mb - 0.00 in0.0 mm 0.00 in0.0 mm
07:10 AM 56.4°F13.6°C 52.6°F11.4°C 87% 2.3 mph NW3.7 kmh NW 5.8 mph9.3 kmh 30.25 in1024.4 mb - 0.00 in0.0 mm 0.00 in0.0 mm
07:20 AM 57.0°F13.9°C 52.8°F11.6°C 86% 4.6 mph N7.4 kmh N 5.8 mph9.3 kmh 30.24 in1024.0 mb - 0.00 in0.0 mm 0.00 in0.0 mm
07:30 AM 57.6°F14.2°C 53.1°F11.7°C 85% 3.5 mph N5.6 kmh N 5.8 mph9.3 kmh 30.24 in1024.0 mb - 0.00 in0.0 mm 0.00 in0.0 mm
07:40 AM 58.2°F14.6°C 53.4°F11.9°C 84% 2.3 mph N3.7 kmh N 8.1 mph13.0 kmh 30.24 in1024.0 mb - 0.00 in0.0 mm 0.00 in0.0 mm
07:50 AM 58.4°F14.7°C 53.3°F11.8°C 83% 5.8 mph NNE9.3 kmh NNE 10.4 mph16.7 kmh 30.25 in1024.4 mb - 0.00 in0.0 mm 0.00 in0.0 mm
08:00 AM 58.7°F14.8°C 53.5°F11.9°C 83% 3.5 mph N5.6 kmh N 9.2 mph14.8 kmh 30.25 in1024.4 mb - 0.00 in0.0 mm 0.00 in0.0 mm
08:10 AM 59.3°F15.2°C 53.8°F12.1°C 82% 5.8 mph NNE9.3 kmh NNE 10.4 mph16.7 kmh 30.25 in1024.4 mb - 0.00 in0.0 mm 0.00 in0.0 mm
08:20 AM 59.7°F15.4°C 53.5°F11.9°C 80% 4.6 mph N7.4 kmh N 9.2 mph14.8 kmh 30.25 in1024.4 mb - 0.00 in0.0 mm 0.00 in0.0 mm
08:30 AM 60.1°F15.6°C 53.6°F12.0°C 79% 4.6 mph NNE7.4 kmh NNE 11.5 mph18.5 kmh 30.25 in1024.4 mb - 0.00 in0.0 mm 0.00 in0.0 mm
08:40 AM 60.3°F15.7°C 53.4°F11.9°C 78% 4.6 mph NNE7.4 kmh NNE 10.4 mph16.7 kmh 30.26 in1024.7 mb - 0.00 in0.0 mm 0.00 in0.0 mm
08:50 AM 60.4°F15.8°C 53.5°F11.9°C 78% 4.6 mph N7.4 kmh N 5.8 mph9.3 kmh 30.26 in1024.7 mb - 0.00 in0.0 mm 0.00 in0.0 mm
09:00 AM 60.6°F15.9°C 53.7°F12.1°C 78% 4.6 mph N7.4 kmh N 6.9 mph11.1 kmh 30.26 in1024.7 mb - 0.00 in0.0 mm 0.00 in0.0 mm
09:10 AM 60.8°F16.0°C 53.5°F11.9°C 77% 5.8 mph N9.3 kmh N 9.2 mph14.8 kmh 30.26 in1024.7 mb - 0.00 in0.0 mm 0.00 in0.0 mm
09:20 AM 60.9°F16.1°C 54.0°F12.2°C 78% 5.8 mph NNE9.3 kmh NNE 11.5 mph18.5 kmh 30.26 in1024.7 mb - 0.00 in0.0 mm 0.00 in0.0 mm
09:30 AM 61.1°F16.2°C 53.9°F12.2°C 77% 2.3 mph N3.7 kmh N 6.9 mph11.1 kmh 30.27 in1025.1 mb - 0.00 in0.0 mm 0.00 in0.0 mm
09:40 AM 61.2°F16.2°C 53.6°F12.0°C 76% 6.9 mph NE11.1 kmh NE 11.5 mph18.5 kmh 30.27 in1025.1 mb - 0.00 in0.0 mm 0.00 in0.0 mm
09:50 AM 60.9°F16.1°C 53.6°F12.0°C 77% 3.5 mph NNE5.6 kmh NNE 6.9 mph11.1 kmh 30.27 in1025.1 mb - 0.00 in0.0 mm 0.00 in0.0 mm
10:00 AM 61.0°F16.1°C 54.1°F12.3°C 78% 2.3 mph N3.7 kmh N 5.8 mph9.3 kmh 30.27 in1025.1 mb - 0.00 in0.0 mm 0.00 in0.0 mm
10:10 AM 61.2°F16.2°C 54.0°F12.2°C 77% 3.5 mph N5.6 kmh N 8.1 mph13.0 kmh 30.27 in1025.1 mb - 0.00 in0.0 mm 0.00 in0.0 mm
10:20 AM 61.2°F16.2°C 53.9°F12.2°C 77% 3.5 mph N5.6 kmh N 11.5 mph18.5 kmh 30.27 in1025.1 mb - 0.00 in0.0 mm 0.00 in0.0 mm
10:30 AM 61.3°F16.3°C 54.0°F12.2°C 77% 5.8 mph N9.3 kmh N 6.9 mph11.1 kmh 30.27 in1025.1 mb - 0.00 in0.0 mm 0.00 in0.0 mm
10:40 AM 61.3°F16.3°C 54.1°F12.3°C 77% 8.1 mph N13.0 kmh N 11.5 mph18.5 kmh 30.27 in1025.1 mb - 0.00 in0.0 mm 0.00 in0.0 mm
10:50 AM 61.6°F16.4°C 54.7°F12.6°C 78% 3.5 mph N5.6 kmh N 6.9 mph11.1 kmh 30.28 in1025.4 mb - 0.00 in0.0 mm 0.00 in0.0 mm
11:00 AM 61.8°F16.6°C 54.2°F12.3°C 76% 4.6 mph N7.4 kmh N 8.1 mph13.0 kmh 30.28 in1025.4 mb - 0.00 in0.0 mm 0.00 in0.0 mm
11:10 AM 62.0°F16.7°C 54.3°F12.4°C 76% 5.8 mph N9.3 kmh N 9.2 mph14.8 kmh 30.28 in1025.4 mb - 0.00 in0.0 mm 0.00 in0.0 mm
11:20 AM 62.2°F16.8°C 54.2°F12.3°C 75% 4.6 mph N7.4 kmh N 11.5 mph18.5 kmh 30.28 in1025.4 mb - 0.00 in0.0 mm 0.00 in0.0 mm
11:30 AM 62.1°F16.7°C 53.7°F12.1°C 74% 3.5 mph N5.6 kmh N 4.6 mph7.4 kmh 30.28 in1025.4 mb - 0.00 in0.0 mm 0.00 in0.0 mm
11:40 AM 62.2°F16.8°C 53.8°F12.1°C 74% 5.8 mph N9.3 kmh N 6.9 mph11.1 kmh 30.28 in1025.4 mb - 0.00 in0.0 mm 0.00 in0.0 mm
11:50 AM 62.0°F16.7°C 54.0°F12.2°C 75% 5.8 mph N9.3 kmh N 11.5 mph18.5 kmh 30.28 in1025.4 mb - 0.00 in0.0 mm 0.00 in0.0 mm
12:00 PM 61.9°F16.6°C 53.5°F11.9°C 74% 2.3 mph N3.7 kmh N 6.9 mph11.1 kmh 30.28 in1025.4 mb - 0.00 in0.0 mm 0.00 in0.0 mm
12:10 PM 62.1°F16.7°C 53.7°F12.1°C 74% 1.2 mph N1.9 kmh N 3.5 mph5.6 kmh 30.28 in1025.4 mb - 0.00 in0.0 mm 0.00 in0.0 mm
12:20 PM 62.1°F16.7°C 54.1°F12.3°C 75% 4.6 mph NNW7.4 kmh NNW 9.2 mph14.8 kmh 30.28 in1025.4 mb - 0.00 in0.0 mm 0.00 in0.0 mm
12:30 PM 61.8°F16.6°C 53.4°F11.9°C 74% 5.8 mph NE9.3 kmh NE 11.5 mph18.5 kmh 30.29 in1025.7 mb - 0.00 in0.0 mm 0.00 in0.0 mm
12:40 PM 61.5°F16.4°C 52.7°F11.5°C 73% 4.6 mph N7.4 kmh N 9.2 mph14.8 kmh 30.29 in1025.7 mb - 0.00 in0.0 mm 0.00 in0.0 mm
12:50 PM 61.2°F16.2°C 52.5°F11.4°C 73% 4.6 mph N7.4 kmh N 5.8 mph9.3 kmh 30.29 in1025.7 mb - 0.00 in0.0 mm 0.00 in0.0 mm
01:00 PM 61.0°F16.1°C 52.3°F11.3°C 73% 5.8 mph N9.3 kmh N 10.4 mph16.7 kmh 30.30 in1026.1 mb - 0.00 in0.0 mm 0.00 in0.0 mm
01:10 PM 60.6°F15.9°C 51.6°F10.9°C 72% 3.5 mph N5.6 kmh N 8.1 mph13.0 kmh 30.30 in1026.1 mb - 0.00 in0.0 mm 0.00 in0.0 mm
01:20 PM 60.3°F15.7°C 51.2°F10.7°C 72% 4.6 mph NNE7.4 kmh NNE 8.1 mph13.0 kmh 30.30 in1026.1 mb - 0.00 in0.0 mm 0.00 in0.0 mm
01:30 PM 59.9°F15.5°C 51.3°F10.7°C 73% 5.8 mph N9.3 kmh N 11.5 mph18.5 kmh 30.30 in1026.1 mb - 0.00 in0.0 mm 0.00 in0.0 mm
01:40 PM 59.5°F15.3°C 50.9°F10.5°C 73% 5.8 mph NNE9.3 kmh NNE 11.5 mph18.5 kmh 30.30 in1026.1 mb - 0.00 in0.0 mm 0.00 in0.0 mm
01:50 PM 59.4°F15.2°C 50.7°F10.4°C 73% 4.6 mph N7.4 kmh N 6.9 mph11.1 kmh 30.31 in1026.4 mb - 0.00 in0.0 mm 0.00 in0.0 mm
02:00 PM 59.5°F15.3°C 50.8°F10.4°C 73% 4.6 mph NNE7.4 kmh NNE 10.4 mph16.7 kmh 30.31 in1026.4 mb - 0.00 in0.0 mm 0.00 in0.0 mm
02:10 PM 59.6°F15.3°C 51.3°F10.7°C 74% 4.6 mph N7.4 kmh N 8.1 mph13.0 kmh 30.31 in1026.4 mb - 0.00 in0.0 mm 0.00 in0.0 mm
02:20 PM 59.6°F15.3°C 50.9°F10.5°C 73% 5.8 mph NE9.3 kmh NE 11.5 mph18.5 kmh 30.31 in1026.4 mb - 0.00 in0.0 mm 0.00 in0.0 mm
02:30 PM 59.8°F15.4°C 51.1°F10.6°C 73% 2.3 mph N3.7 kmh N 10.4 mph16.7 kmh 30.31 in1026.4 mb - 0.00 in0.0 mm 0.00 in0.0 mm
02:40 PM 59.9°F15.5°C 50.8°F10.4°C 72% 4.6 mph N7.4 kmh N 11.5 mph18.5 kmh 30.31 in1026.4 mb - 0.00 in0.0 mm 0.00 in0.0 mm
02:50 PM 59.9°F15.5°C 50.5°F10.3°C 71% 3.5 mph NNE5.6 kmh NNE 9.2 mph14.8 kmh 30.31 in1026.4 mb - 0.00 in0.0 mm 0.00 in0.0 mm
03:00 PM 60.0°F15.6°C 50.6°F10.3°C 71% 5.8 mph N9.3 kmh N 10.4 mph16.7 kmh 30.31 in1026.4 mb - 0.00 in0.0 mm 0.00 in0.0 mm
03:10 PM 59.9°F15.5°C 50.5°F10.3°C 71% 6.9 mph N11.1 kmh N 11.5 mph18.5 kmh 30.31 in1026.4 mb - 0.00 in0.0 mm 0.00 in0.0 mm
03:20 PM 59.8°F15.4°C 50.0°F10.0°C 70% 4.6 mph NNE7.4 kmh NNE 8.1 mph13.0 kmh 30.31 in1026.4 mb - 0.00 in0.0 mm 0.00 in0.0 mm
03:30 PM 59.6°F15.3°C 49.8°F9.9°C 70% 6.9 mph NNE11.1 kmh NNE 12.7 mph20.4 kmh 30.31 in1026.4 mb - 0.00 in0.0 mm 0.00 in0.0 mm
03:40 PM 59.2°F15.1°C 49.8°F9.9°C 71% 3.5 mph NE5.6 kmh NE 8.1 mph13.0 kmh 30.31 in1026.4 mb - 0.00 in0.0 mm 0.00 in0.0 mm
03:50 PM 59.1°F15.1°C 50.1°F10.1°C 72% 3.5 mph NNE5.6 kmh NNE 9.2 mph14.8 kmh 30.31 in1026.4 mb - 0.00 in0.0 mm 0.00 in0.0 mm
04:00 PM 59.1°F15.1°C 50.1°F10.1°C 72% 4.6 mph N7.4 kmh N 9.2 mph14.8 kmh 30.31 in1026.4 mb - 0.00 in0.0 mm 0.00 in0.0 mm
04:10 PM 59.0°F15.0°C 50.0°F10.0°C 72% 4.6 mph N7.4 kmh N 12.7 mph20.4 kmh 30.31 in1026.4 mb - 0.00 in0.0 mm 0.00 in0.0 mm
04:20 PM 58.9°F14.9°C 49.5°F9.7°C 71% 3.5 mph NNE5.6 kmh NNE 4.6 mph7.4 kmh 30.31 in1026.4 mb - 0.00 in0.0 mm 0.00 in0.0 mm
04:30 PM 58.7°F14.8°C 49.3°F9.6°C 71% 4.6 mph N7.4 kmh N 8.1 mph13.0 kmh 30.31 in1026.4 mb - 0.00 in0.0 mm 0.00 in0.0 mm
04:40 PM 58.7°F14.8°C 49.7°F9.8°C 72% 4.6 mph NNE7.4 kmh NNE 8.1 mph13.0 kmh 30.31 in1026.4 mb - 0.00 in0.0 mm 0.00 in0.0 mm
04:50 PM 58.6°F14.8°C 49.6°F9.8°C 72% 5.8 mph NE9.3 kmh NE 11.5 mph18.5 kmh 30.31 in1026.4 mb - 0.00 in0.0 mm 0.00 in0.0 mm
05:00 PM 58.4°F14.7°C 49.0°F9.4°C 71% 2.3 mph NNE3.7 kmh NNE 10.4 mph16.7 kmh 30.31 in1026.4 mb - 0.00 in0.0 mm 0.00 in0.0 mm
05:10 PM 58.3°F14.6°C 48.9°F9.4°C 71% 2.3 mph N3.7 kmh N 8.1 mph13.0 kmh 30.31 in1026.4 mb - 0.00 in0.0 mm 0.00 in0.0 mm
05:20 PM 58.2°F14.6°C 48.8°F9.3°C 71% 5.8 mph NNE9.3 kmh NNE 13.8 mph22.2 kmh 30.31 in1026.4 mb - 0.00 in0.0 mm 0.00 in0.0 mm
05:30 PM 58.2°F14.6°C 48.8°F9.3°C 71% 4.6 mph NNE7.4 kmh NNE 10.4 mph16.7 kmh 30.31 in1026.4 mb - 0.00 in0.0 mm 0.00 in0.0 mm
05:40 PM 58.1°F14.5°C 48.7°F9.3°C 71% 3.5 mph N5.6 kmh N 5.8 mph9.3 kmh 30.31 in1026.4 mb - 0.00 in0.0 mm 0.00 in0.0 mm
05:50 PM 58.0°F14.4°C 48.7°F9.3°C 71% 4.6 mph NNE7.4 kmh NNE 6.9 mph11.1 kmh 30.31 in1026.4 mb - 0.00 in0.0 mm 0.00 in0.0 mm
06:00 PM 58.0°F14.4°C 48.6°F9.2°C 71% 1.2 mph N1.9 kmh N 5.8 mph9.3 kmh 30.31 in1026.4 mb - 0.00 in0.0 mm 0.00 in0.0 mm
06:10 PM 57.8°F14.3°C 48.1°F8.9°C 70% 2.3 mph NNE3.7 kmh NNE 8.1 mph13.0 kmh 30.31 in1026.4 mb - 0.00 in0.0 mm 0.00 in0.0 mm
06:20 PM 57.7°F14.3°C 48.4°F9.1°C 71% 1.2 mph NNE1.9 kmh NNE 4.6 mph7.4 kmh 30.31 in1026.4 mb - 0.00 in0.0 mm 0.00 in0.0 mm
06:30 PM 57.6°F14.2°C 48.3°F9.1°C 71% 2.3 mph N3.7 kmh N 2.3 mph3.7 kmh 30.31 in1026.4 mb - 0.00 in0.0 mm 0.00 in0.0 mm
06:40 PM 57.4°F14.1°C 48.1°F8.9°C 71% 4.6 mph 7.4 kmh 8.1 mph13.0 kmh 30.31 in1026.4 mb - 0.00 in0.0 mm 0.00 in0.0 mm
06:50 PM 57.2°F14.0°C 47.9°F8.8°C 71% 3.5 mph NNE5.6 kmh NNE 6.9 mph11.1 kmh 30.31 in1026.4 mb - 0.00 in0.0 mm 0.00 in0.0 mm
07:10 PM 56.9°F13.8°C 48.0°F8.9°C 72% 3.5 mph N5.6 kmh N 9.2 mph14.8 kmh 30.31 in1026.4 mb - 0.00 in0.0 mm 0.00 in0.0 mm
07:20 PM 56.7°F13.7°C 47.8°F8.8°C 72% 3.5 mph NNE5.6 kmh NNE 3.5 mph5.6 kmh 30.31 in1026.4 mb - 0.00 in0.0 mm 0.00 in0.0 mm
07:30 PM 56.5°F13.6°C 47.6°F8.7°C 72% 3.5 mph N5.6 kmh N 8.1 mph13.0 kmh 30.31 in1026.4 mb - 0.00 in0.0 mm 0.00 in0.0 mm
07:40 PM 56.3°F13.5°C 47.8°F8.8°C 73% 1.2 mph N1.9 kmh N 5.8 mph9.3 kmh 30.31 in1026.4 mb - 0.00 in0.0 mm 0.00 in0.0 mm
07:50 PM 56.0°F13.3°C 47.5°F8.6°C 73% 2.3 mph N3.7 kmh N 5.8 mph9.3 kmh 30.31 in1026.4 mb - 0.00 in0.0 mm 0.00 in0.0 mm
08:00 PM 55.6°F13.1°C 47.4°F8.6°C 74% 4.6 mph N7.4 kmh N 10.4 mph16.7 kmh 30.32 in1026.8 mb - 0.00 in0.0 mm 0.00 in0.0 mm
08:10 PM 55.1°F12.8°C 47.0°F8.3°C 74% 3.5 mph NNE5.6 kmh NNE 9.2 mph14.8 kmh 30.32 in1026.8 mb - 0.00 in0.0 mm 0.00 in0.0 mm
08:20 PM 54.8°F12.7°C 46.7°F8.2°C 74% 4.6 mph N7.4 kmh N 9.2 mph14.8 kmh 30.32 in1026.8 mb - 0.00 in0.0 mm 0.00 in0.0 mm
08:30 PM 54.4°F12.4°C 46.6°F8.1°C 75% 1.2 mph N1.9 kmh N 3.5 mph5.6 kmh 30.33 in1027.1 mb - 0.00 in0.0 mm 0.00 in0.0 mm
08:40 PM 54.0°F12.2°C 46.2°F7.9°C 75% 3.5 mph N5.6 kmh N 5.8 mph9.3 kmh 30.33 in1027.1 mb - 0.00 in0.0 mm 0.00 in0.0 mm
08:50 PM 53.7°F12.1°C 46.3°F7.9°C 76% 1.2 mph N1.9 kmh N 3.5 mph5.6 kmh 30.34 in1027.4 mb - 0.00 in0.0 mm 0.00 in0.0 mm
09:00 PM 53.3°F11.8°C 46.0°F7.8°C 76% 1.2 mph N1.9 kmh N 3.5 mph5.6 kmh 30.34 in1027.4 mb - 0.00 in0.0 mm 0.00 in0.0 mm
09:10 PM 53.0°F11.7°C 46.0°F7.8°C 77% 1.2 mph N1.9 kmh N 4.6 mph7.4 kmh 30.34 in1027.4 mb - 0.00 in0.0 mm 0.00 in0.0 mm
09:20 PM 52.6°F11.4°C 45.9°F7.7°C 78% 1.2 mph NW1.9 kmh NW 3.5 mph5.6 kmh 30.34 in1027.4 mb - 0.00 in0.0 mm 0.00 in0.0 mm
09:30 PM 52.3°F11.3°C 45.6°F7.6°C 78% Calm Calm -- 30.34 in1027.4 mb - 0.00 in0.0 mm 0.00 in0.0 mm
09:40 PM 52.0°F11.1°C 45.7°F7.6°C 79% 1.2 mph NE1.9 kmh NE -- 30.35 in1027.8 mb - 0.00 in0.0 mm 0.00 in0.0 mm
09:50 PM 51.8°F11.0°C 45.5°F7.5°C 79% Calm Calm 4.6 mph7.4 kmh 30.35 in1027.8 mb - 0.00 in0.0 mm 0.00 in0.0 mm
10:00 PM 51.7°F10.9°C 45.7°F7.6°C 80% 3.5 mph NE5.6 kmh NE 6.9 mph11.1 kmh 30.35 in1027.8 mb - 0.00 in0.0 mm 0.00 in0.0 mm
10:10 PM 51.4°F10.8°C 45.5°F7.5°C 80% 1.2 mph NE1.9 kmh NE 1.2 mph1.9 kmh 30.35 in1027.8 mb - 0.00 in0.0 mm 0.00 in0.0 mm
10:20 PM 51.2°F10.7°C 45.2°F7.3°C 80% 1.2 mph NE1.9 kmh NE 4.6 mph7.4 kmh 30.36 in1028.1 mb - 0.00 in0.0 mm 0.00 in0.0 mm
10:30 PM 50.8°F10.4°C 44.9°F7.2°C 80% 2.3 mph NE3.7 kmh NE 8.1 mph13.0 kmh 30.35 in1027.8 mb - 0.00 in0.0 mm 0.00 in0.0 mm
10:40 PM 50.5°F10.3°C 44.9°F7.2°C 81% 2.3 mph NE3.7 kmh NE 4.6 mph7.4 kmh 30.36 in1028.1 mb - 0.00 in0.0 mm 0.00 in0.0 mm
10:50 PM 50.2°F10.1°C 44.6°F7.0°C 81% 5.8 mph NE9.3 kmh NE 8.1 mph13.0 kmh 30.36 in1028.1 mb - 0.00 in0.0 mm 0.00 in0.0 mm
11:00 PM 49.9°F9.9°C 44.3°F6.8°C 81% 2.3 mph NE3.7 kmh NE 5.8 mph9.3 kmh 30.36 in1028.1 mb - 0.00 in0.0 mm 0.00 in0.0 mm
11:10 PM 49.6°F9.8°C 44.4°F6.9°C 82% 1.2 mph NE1.9 kmh NE 4.6 mph7.4 kmh 30.36 in1028.1 mb - 0.00 in0.0 mm 0.00 in0.0 mm
11:20 PM 49.4°F9.7°C 44.1°F6.7°C 82% 1.2 mph NE1.9 kmh NE 4.6 mph7.4 kmh 30.36 in1028.1 mb - 0.00 in0.0 mm 0.00 in0.0 mm
11:30 PM 49.1°F9.5°C 43.9°F6.6°C 82% 4.6 mph NE7.4 kmh NE 6.9 mph11.1 kmh 30.36 in1028.1 mb - 0.00 in0.0 mm 0.00 in0.0 mm
11:40 PM 48.9°F9.4°C 43.7°F6.5°C 82% 3.5 mph NNE5.6 kmh NNE 6.9 mph11.1 kmh 30.36 in1028.1 mb - 0.00 in0.0 mm 0.00 in0.0 mm
11:50 PM 48.7°F9.3°C 43.5°F6.4°C 82% 2.3 mph NE3.7 kmh NE 5.8 mph9.3 kmh 30.36 in1028.1 mb - 0.00 in0.0 mm 0.00 in0.0 mm